sensor_id;sensor_type;location;lat;lon;timestamp;temperature;humidity
9824;DHT22;4951;50.778;7.196;2024-03-08T00:01:21;2.80;1.00
9824;DHT22;4951;50.778;7.196;2024-03-08T00:03:49;2.80;1.00
9824;DHT22;4951;50.778;7.196;2024-03-08T00:06:17;2.70;1.00
9824;DHT22;4951;50.778;7.196;2024-03-08T00:08:44;2.70;51.30
9824;DHT22;4951;50.778;7.196;2024-03-08T00:11:11;2.70;85.90
9824;DHT22;4951;50.778;7.196;2024-03-08T00:13:40;2.70;99.90
9824;DHT22;4951;50.778;7.196;2024-03-08T00:16:07;2.70;99.90
9824;DHT22;4951;50.778;7.196;2024-03-08T00:18:34;2.70;99.90
9824;DHT22;4951;50.778;7.196;2024-03-08T00:21:02;2.70;99.90
9824;DHT22;4951;50.778;7.196;2024-03-08T00:23:30;2.70;99.90
9824;DHT22;4951;50.778;7.196;2024-03-08T00:25:59;2.70;99.90
9824;DHT22;4951;50.778;7.196;2024-03-08T00:28:26;2.70;99.90
9824;DHT22;4951;50.778;7.196;2024-03-08T00:30:55;2.70;99.90
9824;DHT22;4951;50.778;7.196;2024-03-08T00:33:22;2.60;99.90
9824;DHT22;4951;50.778;7.196;2024-03-08T00:35:49;2.60;99.90
9824;DHT22;4951;50.778;7.196;2024-03-08T00:38:16;2.60;1.00
9824;DHT22;4951;50.778;7.196;2024-03-08T00:40:44;2.60;1.00
9824;DHT22;4951;50.778;7.196;2024-03-08T00:43:11;2.50;1.00
9824;DHT22;4951;50.778;7.196;2024-03-08T00:45:39;2.50;1.00
9824;DHT22;4951;50.778;7.196;2024-03-08T00:48:09;2.50;1.00
9824;DHT22;4951;50.778;7.196;2024-03-08T00:50:36;2.50;1.00
9824;DHT22;4951;50.778;7.196;2024-03-08T00:53:03;2.50;1.00
9824;DHT22;4951;50.778;7.196;2024-03-08T00:55:31;2.50;1.00
9824;DHT22;4951;50.778;7.196;2024-03-08T00:57:59;2.50;1.00
9824;DHT22;4951;50.778;7.196;2024-03-08T01:00:26;2.50;1.00
9824;DHT22;4951;50.778;7.196;2024-03-08T01:02:53;2.50;1.00
9824;DHT22;4951;50.778;7.196;2024-03-08T01:05:22;2.40;1.00
9824;DHT22;4951;50.778;7.196;2024-03-08T01:07:50;2.50;1.00
9824;DHT22;4951;50.778;7.196;2024-03-08T01:10:17;2.50;1.00
9824;DHT22;4951;50.778;7.196;2024-03-08T01:12:44;2.50;1.00
9824;DHT22;4951;50.778;7.196;2024-03-08T01:15:11;2.40;1.00
9824;DHT22;4951;50.778;7.196;2024-03-08T01:17:39;2.40;1.00
9824;DHT22;4951;50.778;7.196;2024-03-08T01:20:07;2.40;1.00
9824;DHT22;4951;50.778;7.196;2024-03-08T01:22:38;2.40;1.00
9824;DHT22;4951;50.778;7.196;2024-03-08T01:25:06;2.40;6.10
9824;DHT22;4951;50.778;7.196;2024-03-08T01:27:34;2.30;36.00
9824;DHT22;4951;50.778;7.196;2024-03-08T01:30:03;2.30;99.90
9824;DHT22;4951;50.778;7.196;2024-03-08T01:32:30;2.30;99.90
9824;DHT22;4951;50.778;7.196;2024-03-08T01:34:57;2.30;99.90
9824;DHT22;4951;50.778;7.196;2024-03-08T01:37:24;2.30;99.90
9824;DHT22;4951;50.778;7.196;2024-03-08T01:39:56;2.30;99.90
9824;DHT22;4951;50.778;7.196;2024-03-08T01:42:23;2.20;99.90
9824;DHT22;4951;50.778;7.196;2024-03-08T01:44:50;2.20;99.90
9824;DHT22;4951;50.778;7.196;2024-03-08T01:47:17;2.20;99.90
9824;DHT22;4951;50.778;7.196;2024-03-08T01:49:48;2.20;99.90
9824;DHT22;4951;50.778;7.196;2024-03-08T01:52:17;2.20;99.90
9824;DHT22;4951;50.778;7.196;2024-03-08T01:54:48;2.20;99.90
9824;DHT22;4951;50.778;7.196;2024-03-08T01:57:17;2.20;99.90
9824;DHT22;4951;50.778;7.196;2024-03-08T01:59:44;2.20;99.90
9824;DHT22;4951;50.778;7.196;2024-03-08T02:02:11;2.20;99.90
9824;DHT22;4951;50.778;7.196;2024-03-08T02:04:41;2.20;99.90
9824;DHT22;4951;50.778;7.196;2024-03-08T02:07:08;2.20;99.90
9824;DHT22;4951;50.778;7.196;2024-03-08T02:09:35;2.20;1.00
9824;DHT22;4951;50.778;7.196;2024-03-08T02:12:03;2.20;99.90
9824;DHT22;4951;50.778;7.196;2024-03-08T02:14:35;2.10;99.90
9824;DHT22;4951;50.778;7.196;2024-03-08T02:17:02;2.10;1.00
9824;DHT22;4951;50.778;7.196;2024-03-08T02:19:30;2.10;1.00
9824;DHT22;4951;50.778;7.196;2024-03-08T02:22:00;2.10;1.00
9824;DHT22;4951;50.778;7.196;2024-03-08T02:24:29;2.10;1.00
9824;DHT22;4951;50.778;7.196;2024-03-08T02:26:57;2.00;1.00
9824;DHT22;4951;50.778;7.196;2024-03-08T02:29:24;2.00;1.00
9824;DHT22;4951;50.778;7.196;2024-03-08T02:31:51;2.00;1.00
9824;DHT22;4951;50.778;7.196;2024-03-08T02:34:18;2.00;1.00
9824;DHT22;4951;50.778;7.196;2024-03-08T02:36:45;1.90;1.00
9824;DHT22;4951;50.778;7.196;2024-03-08T02:39:14;2.00;1.00
9824;DHT22;4951;50.778;7.196;2024-03-08T02:41:41;2.00;1.00
9824;DHT22;4951;50.778;7.196;2024-03-08T02:44:09;1.90;1.00
9824;DHT22;4951;50.778;7.196;2024-03-08T02:46:37;1.90;1.00
9824;DHT22;4951;50.778;7.196;2024-03-08T02:49:04;1.90;1.00
9824;DHT22;4951;50.778;7.196;2024-03-08T02:51:33;1.90;1.00
9824;DHT22;4951;50.778;7.196;2024-03-08T02:54:01;1.90;1.00
9824;DHT22;4951;50.778;7.196;2024-03-08T02:56:31;1.90;1.00
9824;DHT22;4951;50.778;7.196;2024-03-08T02:59:00;1.90;1.00
9824;DHT22;4951;50.778;7.196;2024-03-08T03:01:28;1.90;80.30
9824;DHT22;4951;50.778;7.196;2024-03-08T03:03:55;1.90;99.90
9824;DHT22;4951;50.778;7.196;2024-03-08T03:06:22;1.90;87.00
9824;DHT22;4951;50.778;7.196;2024-03-08T03:08:49;1.90;74.60
9824;DHT22;4951;50.778;7.196;2024-03-08T03:11:16;1.80;91.90
9824;DHT22;4951;50.778;7.196;2024-03-08T03:13:45;1.80;99.90
9824;DHT22;4951;50.778;7.196;2024-03-08T03:16:17;1.80;99.90
9824;DHT22;4951;50.778;7.196;2024-03-08T03:18:45;1.80;64.20
9824;DHT22;4951;50.778;7.196;2024-03-08T03:21:12;1.70;82.40
9824;DHT22;4951;50.778;7.196;2024-03-08T03:23:39;1.60;99.90
9824;DHT22;4951;50.778;7.196;2024-03-08T03:26:08;1.60;99.90
9824;DHT22;4951;50.778;7.196;2024-03-08T03:28:36;1.60;99.90
9824;DHT22;4951;50.778;7.196;2024-03-08T03:31:06;1.60;99.90
9824;DHT22;4951;50.778;7.196;2024-03-08T03:33:33;1.50;99.90
9824;DHT22;4951;50.778;7.196;2024-03-08T03:36:02;1.50;1.00
9824;DHT22;4951;50.778;7.196;2024-03-08T03:38:30;1.50;1.00
9824;DHT22;4951;50.778;7.196;2024-03-08T03:40:57;1.50;1.00
9824;DHT22;4951;50.778;7.196;2024-03-08T03:43:32;1.50;1.00
9824;DHT22;4951;50.778;7.196;2024-03-08T03:45:59;1.50;1.00
9824;DHT22;4951;50.778;7.196;2024-03-08T03:48:27;1.50;1.00
9824;DHT22;4951;50.778;7.196;2024-03-08T03:50:54;1.50;1.00
9824;DHT22;4951;50.778;7.196;2024-03-08T03:53:21;1.60;1.00
9824;DHT22;4951;50.778;7.196;2024-03-08T03:55:48;1.60;1.00
9824;DHT22;4951;50.778;7.196;2024-03-08T03:58:15;1.60;1.00
9824;DHT22;4951;50.778;7.196;2024-03-08T04:00:47;1.60;1.00
9824;DHT22;4951;50.778;7.196;2024-03-08T04:03:14;1.70;1.00
9824;DHT22;4951;50.778;7.196;2024-03-08T04:05:43;1.70;1.00
9824;DHT22;4951;50.778;7.196;2024-03-08T04:08:10;1.70;1.00
9824;DHT22;4951;50.778;7.196;2024-03-08T04:10:38;1.70;1.00
9824;DHT22;4951;50.778;7.196;2024-03-08T04:13:06;1.70;1.00
9824;DHT22;4951;50.778;7.196;2024-03-08T04:15:35;1.60;1.00
9824;DHT22;4951;50.778;7.196;2024-03-08T04:18:03;1.60;1.00
9824;DHT22;4951;50.778;7.196;2024-03-08T04:20:30;1.60;1.00
9824;DHT22;4951;50.778;7.196;2024-03-08T04:22:59;1.70;1.00
9824;DHT22;4951;50.778;7.196;2024-03-08T04:25:26;1.60;1.00
9824;DHT22;4951;50.778;7.196;2024-03-08T04:27:53;1.60;1.00
9824;DHT22;4951;50.778;7.196;2024-03-08T04:30:20;1.60;1.00
9824;DHT22;4951;50.778;7.196;2024-03-08T04:32:48;1.60;1.00
9824;DHT22;4951;50.778;7.196;2024-03-08T04:35:15;1.60;1.00
9824;DHT22;4951;50.778;7.196;2024-03-08T04:37:42;1.60;1.00
9824;DHT22;4951;50.778;7.196;2024-03-08T04:40:12;1.60;1.00
9824;DHT22;4951;50.778;7.196;2024-03-08T04:42:40;1.60;1.00
9824;DHT22;4951;50.778;7.196;2024-03-08T04:45:09;1.60;1.00
9824;DHT22;4951;50.778;7.196;2024-03-08T04:47:36;1.60;1.00
9824;DHT22;4951;50.778;7.196;2024-03-08T04:50:04;1.50;1.00
9824;DHT22;4951;50.778;7.196;2024-03-08T04:52:31;1.50;1.00
9824;DHT22;4951;50.778;7.196;2024-03-08T04:54:58;1.50;1.00
9824;DHT22;4951;50.778;7.196;2024-03-08T04:57:26;1.50;96.20
9824;DHT22;4951;50.778;7.196;2024-03-08T04:59:53;1.50;99.90
9824;DHT22;4951;50.778;7.196;2024-03-08T05:02:21;1.50;99.90
9824;DHT22;4951;50.778;7.196;2024-03-08T05:04:49;1.50;99.90
9824;DHT22;4951;50.778;7.196;2024-03-08T05:07:16;1.50;99.90
9824;DHT22;4951;50.778;7.196;2024-03-08T05:09:43;1.50;99.90
9824;DHT22;4951;50.778;7.196;2024-03-08T05:12:17;1.50;99.90
9824;DHT22;4951;50.778;7.196;2024-03-08T05:14:49;1.50;99.90
9824;DHT22;4951;50.778;7.196;2024-03-08T05:17:16;1.50;99.90
9824;DHT22;4951;50.778;7.196;2024-03-08T05:19:43;1.50;99.90
9824;DHT22;4951;50.778;7.196;2024-03-08T05:22:10;1.50;99.90
9824;DHT22;4951;50.778;7.196;2024-03-08T05:24:37;1.50;30.00
9824;DHT22;4951;50.778;7.196;2024-03-08T05:27:04;1.40;99.90
9824;DHT22;4951;50.778;7.196;2024-03-08T05:29:31;1.40;99.90
9824;DHT22;4951;50.778;7.196;2024-03-08T05:32:00;1.40;99.90
9824;DHT22;4951;50.778;7.196;2024-03-08T05:34:28;1.40;99.90
9824;DHT22;4951;50.778;7.196;2024-03-08T05:36:55;1.40;99.90
9824;DHT22;4951;50.778;7.196;2024-03-08T05:39:24;1.30;99.90
9824;DHT22;4951;50.778;7.196;2024-03-08T05:41:51;1.30;1.00
9824;DHT22;4951;50.778;7.196;2024-03-08T05:44:18;1.30;1.00
9824;DHT22;4951;50.778;7.196;2024-03-08T05:46:45;1.20;1.00
9824;DHT22;4951;50.778;7.196;2024-03-08T05:49:14;1.30;1.00
9824;DHT22;4951;50.778;7.196;2024-03-08T05:51:41;1.30;1.00
9824;DHT22;4951;50.778;7.196;2024-03-08T05:54:10;1.30;53.00
9824;DHT22;4951;50.778;7.196;2024-03-08T05:56:38;1.30;96.60
9824;DHT22;4951;50.778;7.196;2024-03-08T05:59:06;1.20;1.00
9824;DHT22;4951;50.778;7.196;2024-03-08T06:01:33;1.20;1.00
9824;DHT22;4951;50.778;7.196;2024-03-08T06:04:03;1.20;99.90
9824;DHT22;4951;50.778;7.196;2024-03-08T06:06:31;1.20;99.90
9824;DHT22;4951;50.778;7.196;2024-03-08T06:08:58;1.20;99.90
9824;DHT22;4951;50.778;7.196;2024-03-08T06:11:26;1.20;1.00
9824;DHT22;4951;50.778;7.196;2024-03-08T06:13:54;1.20;1.00
9824;DHT22;4951;50.778;7.196;2024-03-08T06:16:25;1.20;1.00
9824;DHT22;4951;50.778;7.196;2024-03-08T06:18:55;1.20;1.00
9824;DHT22;4951;50.778;7.196;2024-03-08T06:21:23;1.20;1.00
9824;DHT22;4951;50.778;7.196;2024-03-08T06:23:54;1.30;1.00
9824;DHT22;4951;50.778;7.196;2024-03-08T06:26:23;1.30;1.00
9824;DHT22;4951;50.778;7.196;2024-03-08T06:28:50;1.30;1.00
9824;DHT22;4951;50.778;7.196;2024-03-08T06:31:18;1.30;1.00
9824;DHT22;4951;50.778;7.196;2024-03-08T06:33:45;1.40;1.00
9824;DHT22;4951;50.778;7.196;2024-03-08T06:36:12;1.40;1.00
9824;DHT22;4951;50.778;7.196;2024-03-08T06:38:39;1.40;1.00
9824;DHT22;4951;50.778;7.196;2024-03-08T06:41:09;1.50;1.00
9824;DHT22;4951;50.778;7.196;2024-03-08T06:43:41;1.50;1.00
9824;DHT22;4951;50.778;7.196;2024-03-08T06:46:08;1.50;1.00
9824;DHT22;4951;50.778;7.196;2024-03-08T06:48:35;1.60;1.00
9824;DHT22;4951;50.778;7.196;2024-03-08T06:51:04;1.60;1.00
9824;DHT22;4951;50.778;7.196;2024-03-08T06:53:31;1.60;1.00
9824;DHT22;4951;50.778;7.196;2024-03-08T06:56:00;1.60;1.00
9824;DHT22;4951;50.778;7.196;2024-03-08T06:58:29;1.70;1.00
9824;DHT22;4951;50.778;7.196;2024-03-08T07:00:56;1.70;1.00
9824;DHT22;4951;50.778;7.196;2024-03-08T07:03:26;1.70;1.00
9824;DHT22;4951;50.778;7.196;2024-03-08T07:05:55;1.80;1.00
9824;DHT22;4951;50.778;7.196;2024-03-08T07:08:23;1.90;99.90
9824;DHT22;4951;50.778;7.196;2024-03-08T07:10:52;1.90;99.90
9824;DHT22;4951;50.778;7.196;2024-03-08T07:13:20;2.00;99.90
9824;DHT22;4951;50.778;7.196;2024-03-08T07:15:48;2.00;99.90
9824;DHT22;4951;50.778;7.196;2024-03-08T07:18:15;2.10;27.30
9824;DHT22;4951;50.778;7.196;2024-03-08T07:20:42;2.10;1.00
9824;DHT22;4951;50.778;7.196;2024-03-08T07:23:09;2.20;1.00
9824;DHT22;4951;50.778;7.196;2024-03-08T07:25:36;2.20;1.00
9824;DHT22;4951;50.778;7.196;2024-03-08T07:28:04;2.30;1.00
9824;DHT22;4951;50.778;7.196;2024-03-08T07:30:33;2.30;1.00
9824;DHT22;4951;50.778;7.196;2024-03-08T07:33:28;2.40;1.00
9824;DHT22;4951;50.778;7.196;2024-03-08T07:35:56;2.50;1.00
9824;DHT22;4951;50.778;7.196;2024-03-08T07:38:23;2.50;1.00
9824;DHT22;4951;50.778;7.196;2024-03-08T07:40:50;2.60;1.00
9824;DHT22;4951;50.778;7.196;2024-03-08T07:43:18;2.70;99.90
9824;DHT22;4951;50.778;7.196;2024-03-08T07:45:45;2.80;33.80
9824;DHT22;4951;50.778;7.196;2024-03-08T07:48:12;2.90;1.00
9824;DHT22;4951;50.778;7.196;2024-03-08T07:50:41;3.00;1.00
9824;DHT22;4951;50.778;7.196;2024-03-08T07:53:08;3.00;1.00
9824;DHT22;4951;50.778;7.196;2024-03-08T07:55:35;3.10;1.00
9824;DHT22;4951;50.778;7.196;2024-03-08T07:58:03;3.20;1.00
9824;DHT22;4951;50.778;7.196;2024-03-08T08:00:30;3.30;1.00
9824;DHT22;4951;50.778;7.196;2024-03-08T08:02:58;3.40;1.00
9824;DHT22;4951;50.778;7.196;2024-03-08T08:05:25;3.40;1.00
9824;DHT22;4951;50.778;7.196;2024-03-08T08:07:54;3.60;99.90
9824;DHT22;4951;50.778;7.196;2024-03-08T08:10:22;3.60;99.90
9824;DHT22;4951;50.778;7.196;2024-03-08T08:12:50;3.80;99.90
9824;DHT22;4951;50.778;7.196;2024-03-08T08:15:18;3.90;88.40
9824;DHT22;4951;50.778;7.196;2024-03-08T08:17:45;4.00;1.00
9824;DHT22;4951;50.778;7.196;2024-03-08T08:20:16;4.10;1.00
9824;DHT22;4951;50.778;7.196;2024-03-08T08:22:44;4.30;1.00
9824;DHT22;4951;50.778;7.196;2024-03-08T08:25:12;4.40;1.00
9824;DHT22;4951;50.778;7.196;2024-03-08T08:27:41;4.50;1.00
9824;DHT22;4951;50.778;7.196;2024-03-08T08:30:10;4.70;99.90
9824;DHT22;4951;50.778;7.196;2024-03-08T08:32:37;4.80;99.90
9824;DHT22;4951;50.778;7.196;2024-03-08T08:35:05;4.90;99.90
9824;DHT22;4951;50.778;7.196;2024-03-08T08:37:33;5.00;28.00
9824;DHT22;4951;50.778;7.196;2024-03-08T08:40:02;5.10;7.70
9824;DHT22;4951;50.778;7.196;2024-03-08T08:42:37;5.20;1.00
9824;DHT22;4951;50.778;7.196;2024-03-08T08:45:06;5.30;1.00
9824;DHT22;4951;50.778;7.196;2024-03-08T08:47:34;5.40;1.00
9824;DHT22;4951;50.778;7.196;2024-03-08T08:50:02;5.50;1.00
9824;DHT22;4951;50.778;7.196;2024-03-08T08:52:30;5.60;1.00
9824;DHT22;4951;50.778;7.196;2024-03-08T08:54:57;5.70;1.00
9824;DHT22;4951;50.778;7.196;2024-03-08T08:57:25;5.90;1.00
9824;DHT22;4951;50.778;7.196;2024-03-08T08:59:54;6.10;1.00
9824;DHT22;4951;50.778;7.196;2024-03-08T09:02:23;6.20;99.90
9824;DHT22;4951;50.778;7.196;2024-03-08T09:04:51;6.30;99.90
9824;DHT22;4951;50.778;7.196;2024-03-08T09:07:19;6.50;99.90
9824;DHT22;4951;50.778;7.196;2024-03-08T09:09:47;6.60;99.90
9824;DHT22;4951;50.778;7.196;2024-03-08T09:12:14;6.80;99.90
9824;DHT22;4951;50.778;7.196;2024-03-08T09:14:42;6.90;99.90
9824;DHT22;4951;50.778;7.196;2024-03-08T09:17:10;7.10;1.00
9824;DHT22;4951;50.778;7.196;2024-03-08T09:19:37;7.20;1.00
9824;DHT22;4951;50.778;7.196;2024-03-08T09:22:05;7.40;1.00
9824;DHT22;4951;50.778;7.196;2024-03-08T09:24:32;7.50;99.90
9824;DHT22;4951;50.778;7.196;2024-03-08T09:26:59;7.60;99.90
9824;DHT22;4951;50.778;7.196;2024-03-08T09:29:26;7.70;99.90
9824;DHT22;4951;50.778;7.196;2024-03-08T09:31:54;7.70;99.90
9824;DHT22;4951;50.778;7.196;2024-03-08T09:34:23;7.80;99.90
9824;DHT22;4951;50.778;7.196;2024-03-08T09:36:50;7.90;99.90
9824;DHT22;4951;50.778;7.196;2024-03-08T09:39:17;8.00;99.90
9824;DHT22;4951;50.778;7.196;2024-03-08T09:41:46;8.10;98.10
9824;DHT22;4951;50.778;7.196;2024-03-08T09:44:14;8.30;99.90
9824;DHT22;4951;50.778;7.196;2024-03-08T09:46:42;8.50;1.00
9824;DHT22;4951;50.778;7.196;2024-03-08T09:49:09;8.50;1.00
9824;DHT22;4951;50.778;7.196;2024-03-08T09:51:38;8.80;1.00
9824;DHT22;4951;50.778;7.196;2024-03-08T09:54:07;8.90;1.00
9824;DHT22;4951;50.778;7.196;2024-03-08T09:56:35;9.00;1.00
9824;DHT22;4951;50.778;7.196;2024-03-08T09:59:02;9.10;1.00
9824;DHT22;4951;50.778;7.196;2024-03-08T10:01:58;9.10;1.00
9824;DHT22;4951;50.778;7.196;2024-03-08T10:04:28;9.10;1.00
9824;DHT22;4951;50.778;7.196;2024-03-08T10:06:58;9.10;1.00
9824;DHT22;4951;50.778;7.196;2024-03-08T10:09:25;9.20;1.00
9824;DHT22;4951;50.778;7.196;2024-03-08T10:11:54;9.30;1.00
9824;DHT22;4951;50.778;7.196;2024-03-08T10:14:23;9.30;1.00
9824;DHT22;4951;50.778;7.196;2024-03-08T10:16:52;9.30;1.00
9824;DHT22;4951;50.778;7.196;2024-03-08T10:19:20;9.30;1.00
9824;DHT22;4951;50.778;7.196;2024-03-08T10:21:48;9.30;1.00
9824;DHT22;4951;50.778;7.196;2024-03-08T10:24:17;9.40;1.00
9824;DHT22;4951;50.778;7.196;2024-03-08T10:26:44;9.40;1.00
9824;DHT22;4951;50.778;7.196;2024-03-08T10:29:13;9.50;1.00
9824;DHT22;4951;50.778;7.196;2024-03-08T10:31:43;9.50;1.00
9824;DHT22;4951;50.778;7.196;2024-03-08T10:34:10;9.60;1.00
9824;DHT22;4951;50.778;7.196;2024-03-08T10:36:39;9.70;1.00
9824;DHT22;4951;50.778;7.196;2024-03-08T10:39:12;9.70;1.00
9824;DHT22;4951;50.778;7.196;2024-03-08T10:41:52;9.70;1.00
9824;DHT22;4951;50.778;7.196;2024-03-08T10:44:31;9.70;1.00
9824;DHT22;4951;50.778;7.196;2024-03-08T10:47:03;9.70;1.00
9824;DHT22;4951;50.778;7.196;2024-03-08T10:49:32;9.60;1.00
9824;DHT22;4951;50.778;7.196;2024-03-08T10:52:05;9.60;1.00
9824;DHT22;4951;50.778;7.196;2024-03-08T10:54:37;9.60;1.00
9824;DHT22;4951;50.778;7.196;2024-03-08T10:57:12;9.60;1.00
9824;DHT22;4951;50.778;7.196;2024-03-08T10:59:39;9.50;1.00
9824;DHT22;4951;50.778;7.196;2024-03-08T11:02:09;9.60;1.00
9824;DHT22;4951;50.778;7.196;2024-03-08T11:04:39;9.60;1.00
9824;DHT22;4951;50.778;7.196;2024-03-08T11:07:13;9.60;1.00
9824;DHT22;4951;50.778;7.196;2024-03-08T11:09:43;9.70;1.00
9824;DHT22;4951;50.778;7.196;2024-03-08T11:12:23;9.90;1.00
9824;DHT22;4951;50.778;7.196;2024-03-08T11:14:53;10.10;1.00
9824;DHT22;4951;50.778;7.196;2024-03-08T11:17:45;10.30;1.00
9824;DHT22;4951;50.778;7.196;2024-03-08T11:20:12;10.60;1.00
9824;DHT22;4951;50.778;7.196;2024-03-08T11:22:47;10.70;1.00
9824;DHT22;4951;50.778;7.196;2024-03-08T11:25:34;10.90;1.00
9824;DHT22;4951;50.778;7.196;2024-03-08T11:28:17;11.00;1.00
9824;DHT22;4951;50.778;7.196;2024-03-08T11:30:45;11.10;1.00
9824;DHT22;4951;50.778;7.196;2024-03-08T11:33:15;11.20;1.00
9824;DHT22;4951;50.778;7.196;2024-03-08T11:35:43;11.30;1.00
9824;DHT22;4951;50.778;7.196;2024-03-08T11:38:12;11.30;99.90
9824;DHT22;4951;50.778;7.196;2024-03-08T11:40:40;11.30;99.90
9824;DHT22;4951;50.778;7.196;2024-03-08T11:43:08;11.50;99.90
9824;DHT22;4951;50.778;7.196;2024-03-08T11:45:37;11.50;99.90
9824;DHT22;4951;50.778;7.196;2024-03-08T11:48:06;11.60;99.90
9824;DHT22;4951;50.778;7.196;2024-03-08T11:50:34;11.60;99.90
9824;DHT22;4951;50.778;7.196;2024-03-08T11:53:02;11.70;99.90
9824;DHT22;4951;50.778;7.196;2024-03-08T11:55:30;11.80;99.90
9824;DHT22;4951;50.778;7.196;2024-03-08T11:58:02;11.90;99.90
9824;DHT22;4951;50.778;7.196;2024-03-08T12:00:29;12.00;99.90
9824;DHT22;4951;50.778;7.196;2024-03-08T12:03:06;12.10;99.90
9824;DHT22;4951;50.778;7.196;2024-03-08T12:05:35;12.20;99.90
9824;DHT22;4951;50.778;7.196;2024-03-08T12:08:05;12.20;99.90
9824;DHT22;4951;50.778;7.196;2024-03-08T12:10:35;12.30;99.90
9824;DHT22;4951;50.778;7.196;2024-03-08T12:13:03;12.40;99.90
9824;DHT22;4951;50.778;7.196;2024-03-08T12:15:37;12.50;99.90
9824;DHT22;4951;50.778;7.196;2024-03-08T12:18:09;12.60;99.90
9824;DHT22;4951;50.778;7.196;2024-03-08T12:20:38;12.80;99.90
9824;DHT22;4951;50.778;7.196;2024-03-08T12:23:15;13.00;99.90
9824;DHT22;4951;50.778;7.196;2024-03-08T12:25:42;13.10;99.90
9824;DHT22;4951;50.778;7.196;2024-03-08T12:28:10;13.10;99.90
9824;DHT22;4951;50.778;7.196;2024-03-08T12:30:46;13.20;99.90
9824;DHT22;4951;50.778;7.196;2024-03-08T12:33:18;13.40;99.90
9824;DHT22;4951;50.778;7.196;2024-03-08T12:35:51;13.30;99.90
9824;DHT22;4951;50.778;7.196;2024-03-08T12:38:20;13.30;99.90
9824;DHT22;4951;50.778;7.196;2024-03-08T12:40:50;13.30;99.90
9824;DHT22;4951;50.778;7.196;2024-03-08T12:43:22;13.50;99.90
9824;DHT22;4951;50.778;7.196;2024-03-08T12:45:49;13.70;99.90
9824;DHT22;4951;50.778;7.196;2024-03-08T12:48:18;13.80;99.90
9824;DHT22;4951;50.778;7.196;2024-03-08T12:50:46;13.90;99.90
9824;DHT22;4951;50.778;7.196;2024-03-08T12:53:16;13.90;99.90
9824;DHT22;4951;50.778;7.196;2024-03-08T12:55:43;13.90;99.90
9824;DHT22;4951;50.778;7.196;2024-03-08T12:58:10;13.90;99.90
9824;DHT22;4951;50.778;7.196;2024-03-08T13:00:38;13.90;99.90
9824;DHT22;4951;50.778;7.196;2024-03-08T13:03:09;13.90;99.90
9824;DHT22;4951;50.778;7.196;2024-03-08T13:05:38;14.00;99.90
9824;DHT22;4951;50.778;7.196;2024-03-08T13:08:08;14.00;99.90
9824;DHT22;4951;50.778;7.196;2024-03-08T13:10:38;14.10;99.90
9824;DHT22;4951;50.778;7.196;2024-03-08T13:13:05;14.20;99.90
9824;DHT22;4951;50.778;7.196;2024-03-08T13:15:32;14.20;99.90
9824;DHT22;4951;50.778;7.196;2024-03-08T13:17:59;14.30;99.90
9824;DHT22;4951;50.778;7.196;2024-03-08T13:20:27;14.30;99.90
9824;DHT22;4951;50.778;7.196;2024-03-08T13:22:55;14.40;99.90
9824;DHT22;4951;50.778;7.196;2024-03-08T13:25:24;14.60;99.90
9824;DHT22;4951;50.778;7.196;2024-03-08T13:27:52;14.80;99.90
9824;DHT22;4951;50.778;7.196;2024-03-08T13:30:22;15.00;99.90
9824;DHT22;4951;50.778;7.196;2024-03-08T13:32:52;15.20;99.90
9824;DHT22;4951;50.778;7.196;2024-03-08T13:35:19;15.20;99.90
9824;DHT22;4951;50.778;7.196;2024-03-08T13:37:51;15.20;99.90
9824;DHT22;4951;50.778;7.196;2024-03-08T13:40:20;15.30;99.90
9824;DHT22;4951;50.778;7.196;2024-03-08T13:42:47;15.50;99.90
9824;DHT22;4951;50.778;7.196;2024-03-08T13:45:15;15.50;99.90
9824;DHT22;4951;50.778;7.196;2024-03-08T13:47:43;15.70;99.90
9824;DHT22;4951;50.778;7.196;2024-03-08T13:50:12;15.70;99.90
9824;DHT22;4951;50.778;7.196;2024-03-08T13:52:39;15.80;99.90
9824;DHT22;4951;50.778;7.196;2024-03-08T13:55:07;15.90;99.90
9824;DHT22;4951;50.778;7.196;2024-03-08T13:57:36;16.00;99.90
9824;DHT22;4951;50.778;7.196;2024-03-08T14:00:04;16.00;96.20
9824;DHT22;4951;50.778;7.196;2024-03-08T14:02:38;16.00;91.20
9824;DHT22;4951;50.778;7.196;2024-03-08T14:05:12;16.00;90.10
9824;DHT22;4951;50.778;7.196;2024-03-08T14:07:40;16.20;90.50
9824;DHT22;4951;50.778;7.196;2024-03-08T14:10:08;16.20;76.50
9824;DHT22;4951;50.778;7.196;2024-03-08T14:12:36;16.20;72.10
9824;DHT22;4951;50.778;7.196;2024-03-08T14:15:04;16.30;70.40
9824;DHT22;4951;50.778;7.196;2024-03-08T14:17:32;16.30;57.40
9824;DHT22;4951;50.778;7.196;2024-03-08T14:19:59;16.40;82.00
9824;DHT22;4951;50.778;7.196;2024-03-08T14:22:27;16.50;44.00
9824;DHT22;4951;50.778;7.196;2024-03-08T14:24:54;16.60;38.20
9824;DHT22;4951;50.778;7.196;2024-03-08T14:27:22;16.60;27.30
9824;DHT22;4951;50.778;7.196;2024-03-08T14:29:50;16.60;24.70
9824;DHT22;4951;50.778;7.196;2024-03-08T14:32:17;16.60;28.90
9824;DHT22;4951;50.778;7.196;2024-03-08T14:34:45;16.70;28.60
9824;DHT22;4951;50.778;7.196;2024-03-08T14:37:13;16.90;26.30
9824;DHT22;4951;50.778;7.196;2024-03-08T14:39:40;16.90;20.30
9824;DHT22;4951;50.778;7.196;2024-03-08T14:42:10;16.90;16.70
9824;DHT22;4951;50.778;7.196;2024-03-08T14:44:39;16.90;15.30
9824;DHT22;4951;50.778;7.196;2024-03-08T14:47:07;16.90;14.30
9824;DHT22;4951;50.778;7.196;2024-03-08T14:49:37;17.00;15.10
9824;DHT22;4951;50.778;7.196;2024-03-08T14:52:04;17.10;11.50
9824;DHT22;4951;50.778;7.196;2024-03-08T14:54:51;17.00;5.50
9824;DHT22;4951;50.778;7.196;2024-03-08T14:57:18;16.90;4.90
9824;DHT22;4951;50.778;7.196;2024-03-08T14:59:45;16.90;2.40
9824;DHT22;4951;50.778;7.196;2024-03-08T15:02:14;16.90;1.60
9824;DHT22;4951;50.778;7.196;2024-03-08T15:04:45;16.90;3.00
9824;DHT22;4951;50.778;7.196;2024-03-08T15:07:19;17.00;7.60
9824;DHT22;4951;50.778;7.196;2024-03-08T15:09:46;17.30;8.00
9824;DHT22;4951;50.778;7.196;2024-03-08T15:12:13;17.40;8.00
9824;DHT22;4951;50.778;7.196;2024-03-08T15:14:41;17.30;1.00
9824;DHT22;4951;50.778;7.196;2024-03-08T15:17:10;17.00;1.00
9824;DHT22;4951;50.778;7.196;2024-03-08T15:19:44;16.70;1.00
9824;DHT22;4951;50.778;7.196;2024-03-08T15:22:11;16.40;1.00
9824;DHT22;4951;50.778;7.196;2024-03-08T15:24:38;16.10;1.00
9824;DHT22;4951;50.778;7.196;2024-03-08T15:27:05;16.00;1.00
9824;DHT22;4951;50.778;7.196;2024-03-08T15:29:32;15.70;1.00
9824;DHT22;4951;50.778;7.196;2024-03-08T15:32:01;15.20;1.00
9824;DHT22;4951;50.778;7.196;2024-03-08T15:34:28;14.60;1.00
9824;DHT22;4951;50.778;7.196;2024-03-08T15:36:59;14.00;1.80
9824;DHT22;4951;50.778;7.196;2024-03-08T15:39:28;13.40;1.00
9824;DHT22;4951;50.778;7.196;2024-03-08T15:41:56;12.90;4.00
9824;DHT22;4951;50.778;7.196;2024-03-08T15:44:23;12.60;16.50
9824;DHT22;4951;50.778;7.196;2024-03-08T15:46:53;12.30;27.30
9824;DHT22;4951;50.778;7.196;2024-03-08T15:49:19;12.10;39.70
9824;DHT22;4951;50.778;7.196;2024-03-08T15:51:47;11.90;48.80
9824;DHT22;4951;50.778;7.196;2024-03-08T15:54:15;11.70;59.60
9824;DHT22;4951;50.778;7.196;2024-03-08T15:56:43;11.60;75.30
9824;DHT22;4951;50.778;7.196;2024-03-08T15:59:10;11.50;86.10
9824;DHT22;4951;50.778;7.196;2024-03-08T16:01:37;11.30;91.80
9824;DHT22;4951;50.778;7.196;2024-03-08T16:04:04;11.30;99.90
9824;DHT22;4951;50.778;7.196;2024-03-08T16:06:32;11.10;99.90
9824;DHT22;4951;50.778;7.196;2024-03-08T16:09:01;11.10;99.90
9824;DHT22;4951;50.778;7.196;2024-03-08T16:11:30;11.00;99.90
9824;DHT22;4951;50.778;7.196;2024-03-08T16:13:58;10.90;99.90
9824;DHT22;4951;50.778;7.196;2024-03-08T16:16:26;10.80;99.90
9824;DHT22;4951;50.778;7.196;2024-03-08T16:18:55;10.70;99.90
9824;DHT22;4951;50.778;7.196;2024-03-08T16:21:23;10.70;99.90
9824;DHT22;4951;50.778;7.196;2024-03-08T16:23:50;10.60;99.90
9824;DHT22;4951;50.778;7.196;2024-03-08T16:26:19;10.60;99.90
9824;DHT22;4951;50.778;7.196;2024-03-08T16:28:50;10.50;99.90
9824;DHT22;4951;50.778;7.196;2024-03-08T16:31:19;10.50;99.90